createdAt,value
2019-05-05T00:00:01.677Z,995.61
2019-05-05T00:01:01.730Z,995.59
2019-05-05T00:02:01.653Z,995.64
2019-05-05T00:03:01.647Z,995.56
2019-05-05T00:04:01.633Z,995.56
2019-05-05T00:05:01.622Z,995.57
2019-05-05T00:06:01.612Z,995.63
2019-05-05T00:07:01.815Z,995.65
2019-05-05T00:08:01.585Z,995.55
2019-05-05T00:09:01.576Z,995.56
2019-05-05T00:10:01.566Z,995.67
2019-05-05T00:11:01.553Z,995.66
2019-05-05T00:12:01.542Z,995.66
2019-05-05T00:13:01.599Z,995.69
2019-05-05T00:14:01.520Z,995.73
2019-05-05T00:15:01.509Z,995.61
2019-05-05T00:16:01.501Z,995.72
2019-05-05T00:17:01.488Z,995.69
2019-05-05T00:18:01.480Z,995.79
2019-05-05T00:19:01.532Z,995.65
2019-05-05T00:20:01.459Z,995.70
2019-05-05T00:21:01.443Z,995.66
2019-05-05T00:22:01.437Z,995.70
2019-05-05T00:23:01.421Z,995.79
2019-05-05T00:24:01.410Z,995.79
2019-05-05T00:25:01.612Z,995.80
2019-05-05T00:26:01.504Z,995.81
2019-05-05T00:27:01.410Z,995.75
2019-05-05T00:28:01.426Z,995.80
2019-05-05T00:29:01.364Z,995.82
2019-05-05T00:30:01.361Z,995.88
2019-05-05T00:31:01.553Z,995.90
2019-05-05T00:32:01.387Z,995.88
2019-05-05T00:33:01.324Z,995.83
2019-05-05T00:34:01.348Z,995.84
2019-05-05T00:35:01.318Z,995.91
2019-05-05T00:36:01.304Z,995.86
2019-05-05T00:37:01.502Z,995.89
2019-05-05T00:38:01.308Z,995.85
2019-05-05T00:39:01.298Z,995.83
2019-05-05T00:40:01.255Z,995.87
2019-05-05T00:41:01.274Z,995.88
2019-05-05T00:42:01.240Z,995.82
2019-05-05T00:43:01.503Z,995.81
2019-05-05T00:44:01.217Z,995.91
2019-05-05T00:45:01.184Z,995.87
2019-05-05T00:46:01.187Z,995.85
2019-05-05T00:47:01.157Z,995.91
2019-05-05T00:48:01.175Z,995.88
2019-05-05T00:49:01.216Z,995.92
2019-05-05T00:50:01.139Z,995.91
2019-05-05T00:51:01.120Z,995.86
2019-05-05T00:52:01.106Z,995.94
2019-05-05T00:53:01.132Z,995.91
2019-05-05T00:54:01.113Z,995.90
2019-05-05T00:55:01.192Z,995.95
2019-05-05T00:56:01.078Z,995.99
2019-05-05T00:57:01.053Z,995.98
2019-05-05T00:58:01.042Z,995.99
2019-05-05T00:59:04.589Z,996.03
2019-05-05T01:00:01.021Z,996.09
2019-05-05T01:01:01.075Z,996.02
2019-05-05T01:02:01.002Z,995.99
2019-05-05T01:03:00.994Z,996.01
2019-05-05T01:04:00.968Z,996.07
2019-05-05T01:05:00.966Z,996.07
2019-05-05T01:06:00.970Z,996.09
2019-05-05T01:07:01.153Z,996.18
2019-05-05T01:08:00.940Z,996.23
2019-05-05T01:09:00.919Z,996.16
2019-05-05T01:10:00.913Z,996.10
2019-05-05T01:11:00.897Z,996.17
2019-05-05T01:12:01.799Z,996.17
2019-05-05T01:13:01.080Z,996.23
2019-05-05T01:14:00.854Z,996.28
2019-05-05T01:15:00.844Z,996.20
2019-05-05T01:16:00.833Z,996.20
2019-05-05T01:17:00.820Z,996.20
2019-05-05T01:18:02.262Z,996.24
2019-05-05T01:19:00.867Z,996.25
2019-05-05T01:20:04.059Z,996.24
2019-05-05T01:21:01.774Z,996.24
2019-05-05T01:22:00.766Z,996.24
2019-05-05T01:23:00.755Z,996.26
2019-05-05T01:24:00.745Z,996.28
2019-05-05T01:25:00.799Z,996.29
2019-05-05T01:26:00.726Z,996.36
2019-05-05T01:27:00.713Z,996.25
2019-05-05T01:28:00.703Z,996.30
2019-05-05T01:29:00.688Z,996.37
2019-05-05T01:30:00.678Z,996.40
2019-05-05T01:31:01.184Z,996.37
2019-05-05T01:32:00.658Z,996.37
2019-05-05T01:33:00.642Z,996.44
2019-05-05T01:34:00.632Z,996.38
2019-05-05T01:35:00.624Z,996.46
2019-05-05T01:36:00.614Z,996.46
2019-05-05T01:37:02.236Z,996.49
2019-05-05T01:38:00.587Z,996.50
2019-05-05T01:39:00.578Z,996.51
2019-05-05T01:40:00.565Z,996.51
2019-05-05T01:41:00.553Z,996.54
2019-05-05T01:42:00.542Z,996.63
2019-05-05T01:43:00.600Z,996.67
2019-05-05T01:44:00.521Z,996.64
2019-05-05T01:45:00.512Z,996.75
2019-05-05T01:46:00.501Z,996.69
2019-05-05T01:47:00.487Z,996.73
2019-05-05T01:48:00.476Z,996.73
2019-05-05T01:49:00.531Z,996.82
2019-05-05T01:50:08.236Z,996.77
2019-05-05T01:51:01.442Z,996.81
2019-05-05T01:52:00.431Z,996.91
2019-05-05T01:53:00.421Z,996.84
2019-05-05T01:54:00.410Z,996.90
2019-05-05T01:55:00.464Z,996.90
2019-05-05T01:56:00.387Z,996.94
2019-05-05T01:57:00.379Z,996.98
2019-05-05T01:58:00.367Z,996.95
2019-05-05T01:59:00.353Z,996.98
2019-05-05T02:00:00.345Z,996.96
2019-05-05T02:01:00.413Z,996.94
2019-05-05T02:02:00.320Z,996.96
2019-05-05T02:03:00.310Z,996.92
2019-05-05T02:04:00.298Z,996.93
2019-05-05T02:05:00.287Z,996.94
2019-05-05T02:06:00.275Z,997.00
2019-05-05T02:07:00.524Z,997.04
2019-05-05T02:08:00.257Z,996.99
2019-05-05T02:09:00.253Z,997.04
2019-05-05T02:10:00.234Z,996.96
2019-05-05T02:11:00.220Z,997.01
2019-05-05T02:12:00.209Z,996.95
2019-05-05T02:13:00.920Z,997.03
2019-05-05T02:14:00.187Z,996.96
2019-05-05T02:15:00.176Z,997.00
2019-05-05T02:16:00.165Z,996.97
2019-05-05T02:17:00.161Z,997.05
2019-05-05T02:18:00.141Z,996.94
2019-05-05T02:19:00.962Z,996.99
2019-05-05T02:20:00.119Z,996.96
2019-05-05T02:21:00.107Z,996.89
2019-05-05T02:22:00.096Z,997.03
2019-05-05T02:23:00.086Z,996.97
2019-05-05T02:24:00.076Z,997.06
2019-05-05T02:25:00.130Z,997.01
2019-05-05T02:26:00.057Z,997.06
2019-05-05T02:27:00.041Z,996.97
2019-05-05T02:28:00.028Z,997.05
2019-05-05T02:29:00.020Z,997.08
2019-05-05T02:30:00.009Z,997.11
2019-05-05T02:31:00.336Z,997.13
2019-05-05T02:31:59.985Z,997.13
2019-05-05T02:32:59.978Z,997.13
2019-05-05T02:33:59.961Z,997.13
2019-05-05T02:34:59.951Z,997.11
2019-05-05T02:35:59.939Z,997.09
2019-05-05T02:37:00.347Z,997.13
2019-05-05T02:37:59.919Z,997.18
2019-05-05T02:38:59.905Z,997.08
2019-05-05T02:40:06.392Z,997.13
2019-05-05T02:41:00.882Z,997.17
2019-05-05T02:41:59.871Z,997.26
2019-05-05T02:42:59.927Z,997.17
2019-05-05T02:43:59.848Z,997.23
2019-05-05T02:44:59.839Z,997.17
2019-05-05T02:45:59.836Z,997.19
2019-05-05T02:46:59.814Z,997.26
2019-05-05T02:47:59.805Z,997.21
2019-05-05T02:48:59.865Z,997.29
2019-05-05T02:49:59.780Z,997.26
2019-05-05T02:51:02.058Z,997.22
2019-05-05T02:51:59.772Z,997.24
2019-05-05T02:52:59.746Z,997.23
2019-05-05T02:53:59.738Z,997.30
2019-05-05T02:54:59.792Z,997.33
2019-05-05T02:55:59.714Z,997.36
2019-05-05T02:56:59.703Z,997.33
2019-05-05T02:57:59.691Z,997.37
2019-05-05T02:58:59.680Z,997.36
2019-05-05T02:59:59.670Z,997.46
2019-05-05T03:00:59.726Z,997.43
2019-05-05T03:01:59.645Z,997.46
2019-05-05T03:02:59.635Z,997.43
2019-05-05T03:03:59.630Z,997.53
2019-05-05T03:04:59.615Z,997.51
2019-05-05T03:05:59.601Z,997.60
2019-05-05T03:06:59.808Z,997.64
2019-05-05T03:07:59.579Z,997.48
2019-05-05T03:08:59.569Z,997.58
2019-05-05T03:09:59.561Z,997.62
2019-05-05T03:10:59.545Z,997.53
2019-05-05T03:11:59.533Z,997.55
2019-05-05T03:12:59.594Z,997.50
2019-05-05T03:13:59.512Z,997.59
2019-05-05T03:14:59.500Z,997.55
2019-05-05T03:15:59.490Z,997.63
2019-05-05T03:16:59.480Z,997.59
2019-05-05T03:17:59.466Z,997.60
2019-05-05T03:18:59.522Z,997.67
2019-05-05T03:19:59.443Z,997.64
2019-05-05T03:21:04.483Z,997.67
2019-05-05T03:22:00.420Z,997.72
2019-05-05T03:22:59.411Z,997.77
2019-05-05T03:23:59.400Z,997.72
2019-05-05T03:24:59.454Z,997.83
2019-05-05T03:25:59.382Z,997.83
2019-05-05T03:26:59.364Z,997.88
2019-05-05T03:27:59.354Z,997.93
2019-05-05T03:28:59.342Z,997.92
2019-05-05T03:29:59.332Z,997.89
2019-05-05T03:30:59.388Z,997.95
2019-05-05T03:31:59.312Z,997.98
2019-05-05T03:32:59.297Z,997.95
2019-05-05T03:33:59.300Z,997.95
2019-05-05T03:34:59.275Z,997.92
2019-05-05T03:35:59.266Z,997.89
2019-05-05T03:36:59.321Z,997.99
2019-05-05T03:37:59.241Z,997.86
2019-05-05T03:38:59.230Z,997.99
2019-05-05T03:39:59.218Z,997.98
2019-05-05T03:40:59.206Z,997.91
2019-05-05T03:41:59.197Z,997.92
2019-05-05T03:42:59.251Z,997.94
2019-05-05T03:43:59.174Z,997.94
2019-05-05T03:44:59.165Z,997.91
2019-05-05T03:45:59.166Z,997.92
2019-05-05T03:46:59.143Z,997.95
2019-05-05T03:47:59.128Z,998.00
2019-05-05T03:48:59.329Z,998.05
2019-05-05T03:49:59.106Z,997.98
2019-05-05T03:50:59.097Z,998.05
2019-05-05T03:51:59.083Z,998.04
2019-05-05T03:52:59.073Z,998.08
2019-05-05T03:53:59.062Z,998.05
2019-05-05T03:54:59.115Z,998.09
2019-05-05T03:55:59.038Z,998.07
2019-05-05T03:56:59.032Z,998.13
2019-05-05T03:57:59.016Z,998.12
2019-05-05T03:58:59.005Z,997.99
2019-05-05T03:59:58.995Z,998.08
2019-05-05T04:00:59.050Z,998.06
2019-05-05T04:01:58.973Z,998.12
2019-05-05T04:02:58.960Z,998.07
2019-05-05T04:03:58.951Z,998.09
2019-05-05T04:04:58.938Z,998.10
2019-05-05T04:05:58.926Z,998.06
2019-05-05T04:06:58.981Z,998.06
2019-05-05T04:07:58.907Z,997.98
2019-05-05T04:08:58.897Z,998.04
2019-05-05T04:09:58.882Z,998.05
2019-05-05T04:10:58.871Z,998.04
2019-05-05T04:11:58.862Z,998.04
2019-05-05T04:12:58.920Z,998.10
2019-05-05T04:13:58.840Z,998.02
2019-05-05T04:14:58.827Z,998.10
2019-05-05T04:15:58.816Z,998.06
2019-05-05T04:16:58.806Z,998.11
2019-05-05T04:17:58.799Z,998.09
2019-05-05T04:18:58.853Z,998.03
2019-05-05T04:19:58.772Z,998.09
2019-05-05T04:20:58.761Z,998.05
2019-05-05T04:21:58.751Z,998.05
2019-05-05T04:22:58.739Z,997.97
2019-05-05T04:23:58.730Z,998.07
2019-05-05T04:24:58.786Z,998.00
2019-05-05T04:25:58.707Z,998.11
2019-05-05T04:26:58.695Z,997.98
2019-05-05T04:27:58.689Z,998.03
2019-05-05T04:28:58.673Z,998.09
2019-05-05T04:29:58.662Z,998.09
2019-05-05T04:30:58.719Z,998.03
2019-05-05T04:31:58.643Z,998.11
2019-05-05T04:32:58.629Z,998.05
2019-05-05T04:33:58.619Z,998.02
2019-05-05T04:34:58.608Z,998.07
2019-05-05T04:35:58.597Z,998.09
2019-05-05T04:36:58.655Z,998.10
2019-05-05T04:37:58.578Z,998.17
2019-05-05T04:38:58.565Z,998.11
2019-05-05T04:39:58.552Z,998.14
2019-05-05T04:40:58.543Z,998.13
2019-05-05T04:41:58.531Z,998.15
2019-05-05T04:42:58.588Z,998.14
2019-05-05T04:43:58.509Z,998.13
2019-05-05T04:44:58.500Z,998.09
2019-05-05T04:45:58.494Z,998.05
2019-05-05T04:46:58.475Z,998.17
2019-05-05T04:47:58.466Z,998.07
2019-05-05T04:48:58.520Z,998.17
2019-05-05T04:49:58.441Z,998.18
2019-05-05T04:50:58.436Z,998.10
2019-05-05T04:51:58.418Z,998.19
2019-05-05T04:52:58.406Z,998.16
2019-05-05T04:53:58.396Z,998.18
2019-05-05T04:54:58.450Z,998.10
2019-05-05T04:55:58.373Z,998.15
2019-05-05T04:56:58.362Z,998.14
2019-05-05T04:57:58.353Z,998.16
2019-05-05T04:58:58.345Z,998.19
2019-05-05T04:59:58.331Z,998.19
2019-05-05T05:00:58.530Z,998.22
2019-05-05T05:01:58.304Z,998.20
2019-05-05T05:02:58.296Z,998.27
2019-05-05T05:03:58.282Z,998.17
2019-05-05T05:04:58.271Z,998.22
2019-05-05T05:05:58.260Z,998.27
2019-05-05T05:06:58.314Z,998.31
2019-05-05T05:07:58.240Z,998.36
2019-05-05T05:08:58.231Z,998.36
2019-05-05T05:09:58.219Z,998.42
2019-05-05T05:10:58.204Z,998.31
2019-05-05T05:11:58.194Z,998.40
2019-05-05T05:12:58.249Z,998.36
2019-05-05T05:13:58.172Z,998.39
2019-05-05T05:14:58.160Z,998.43
2019-05-05T05:15:58.151Z,998.43
2019-05-05T05:16:58.138Z,998.42
2019-05-05T05:17:58.126Z,998.36
2019-05-05T05:18:58.182Z,998.44
2019-05-05T05:19:58.108Z,998.38
2019-05-05T05:20:58.093Z,998.47
2019-05-05T05:22:01.801Z,998.37
2019-05-05T05:22:58.072Z,998.44
2019-05-05T05:23:58.061Z,998.43
2019-05-05T05:24:58.260Z,998.47
2019-05-05T05:25:58.038Z,998.49
2019-05-05T05:26:58.027Z,998.54
2019-05-05T05:27:58.025Z,998.62
2019-05-05T05:28:58.007Z,998.64
2019-05-05T05:29:57.994Z,998.63
2019-05-05T05:30:58.206Z,998.59
2019-05-05T05:31:57.973Z,998.59
2019-05-05T05:32:57.959Z,998.58
2019-05-05T05:33:57.952Z,998.55
2019-05-05T05:34:57.938Z,998.70
2019-05-05T05:35:57.925Z,998.67
2019-05-05T05:36:57.984Z,998.63
2019-05-05T05:37:57.904Z,998.73
2019-05-05T05:38:57.893Z,998.76
2019-05-05T05:39:57.885Z,998.77
2019-05-05T05:40:57.871Z,998.78
2019-05-05T05:41:57.857Z,998.74
2019-05-05T05:42:57.931Z,998.79
2019-05-05T05:43:57.837Z,998.77
2019-05-05T05:44:57.833Z,998.89
2019-05-05T05:45:57.818Z,998.83
2019-05-05T05:46:57.805Z,998.77
2019-05-05T05:47:57.793Z,998.86
2019-05-05T05:48:57.847Z,998.84
2019-05-05T05:49:57.768Z,998.81
2019-05-05T05:50:57.791Z,998.81
2019-05-05T05:51:57.826Z,998.89
2019-05-05T05:52:57.780Z,998.89
2019-05-05T05:53:57.736Z,998.86
2019-05-05T05:54:57.813Z,998.86
2019-05-05T05:55:57.739Z,998.93
2019-05-05T05:56:57.699Z,998.89
2019-05-05T05:57:57.711Z,998.88
2019-05-05T05:58:57.668Z,998.88
2019-05-05T05:59:57.657Z,998.96
2019-05-05T06:00:57.734Z,998.90
2019-05-05T06:02:08.987Z,998.99
2019-05-05T06:02:58.631Z,998.94
2019-05-05T06:03:57.685Z,998.98
2019-05-05T06:04:57.608Z,998.88
2019-05-05T06:05:57.617Z,999.01
2019-05-05T06:06:57.876Z,998.97
2019-05-05T06:07:57.617Z,999.05
2019-05-05T06:08:57.560Z,999.04
2019-05-05T06:09:57.660Z,999.03
2019-05-05T06:10:57.552Z,999.08
2019-05-05T06:11:57.576Z,999.08
2019-05-05T06:12:57.638Z,999.09
2019-05-05T06:13:57.509Z,999.06
2019-05-05T06:14:57.514Z,999.10
2019-05-05T06:15:57.486Z,999.12
2019-05-05T06:16:57.488Z,999.08
2019-05-05T06:17:57.461Z,999.12
2019-05-05T06:18:57.664Z,999.05
2019-05-05T06:19:57.431Z,999.06
2019-05-05T06:20:57.417Z,999.07
2019-05-05T06:21:57.406Z,998.95
2019-05-05T06:22:57.397Z,999.08
2019-05-05T06:23:57.387Z,999.02
2019-05-05T06:24:57.449Z,999.05
2019-05-05T06:25:57.364Z,999.02
2019-05-05T06:26:57.361Z,998.98
2019-05-05T06:27:57.339Z,999.02
2019-05-05T06:28:57.327Z,998.94
2019-05-05T06:29:57.324Z,999.03
2019-05-05T06:30:57.374Z,999.01
2019-05-05T06:31:57.324Z,998.99
2019-05-05T06:32:57.282Z,999.01
2019-05-05T06:33:57.270Z,998.99
2019-05-05T06:34:57.317Z,999.06
2019-05-05T06:35:57.250Z,998.99
2019-05-05T06:36:57.343Z,999.07
2019-05-05T06:37:57.224Z,999.03
2019-05-05T06:38:57.219Z,998.97
2019-05-05T06:39:57.202Z,999.00
2019-05-05T06:40:57.192Z,998.97
2019-05-05T06:41:57.180Z,998.96
2019-05-05T06:42:57.234Z,999.00
2019-05-05T06:43:57.157Z,998.98
2019-05-05T06:44:57.146Z,999.03
2019-05-05T06:45:57.134Z,999.02
2019-05-05T06:46:57.122Z,999.04
2019-05-05T06:47:57.113Z,999.03
2019-05-05T06:48:57.167Z,999.06
2019-05-05T06:49:57.159Z,999.08
2019-05-05T06:50:57.078Z,999.12
2019-05-05T06:51:57.070Z,999.12
2019-05-05T06:52:57.054Z,999.12
2019-05-05T06:53:57.046Z,999.06
2019-05-05T06:54:57.100Z,999.09
2019-05-05T06:55:57.023Z,999.16
2019-05-05T06:56:57.013Z,999.13
2019-05-05T06:57:56.996Z,999.15
2019-05-05T06:58:56.989Z,999.14
2019-05-05T06:59:56.980Z,999.13
2019-05-05T07:00:57.029Z,999.12
2019-05-05T07:01:56.955Z,999.11
2019-05-05T07:02:56.942Z,999.09
2019-05-05T07:03:56.932Z,999.07
2019-05-05T07:04:56.921Z,999.09
2019-05-05T07:05:56.908Z,999.11
2019-05-05T07:06:57.283Z,999.14
2019-05-05T07:07:56.885Z,999.15
2019-05-05T07:08:56.872Z,999.16
2019-05-05T07:09:56.860Z,999.12
2019-05-05T07:10:56.853Z,999.11
2019-05-05T07:11:56.842Z,999.14
2019-05-05T07:12:57.043Z,999.13
2019-05-05T07:13:56.818Z,999.14
2019-05-05T07:14:56.809Z,999.18
2019-05-05T07:15:56.793Z,999.14
2019-05-05T07:16:56.782Z,999.25
2019-05-05T07:17:56.776Z,999.19
2019-05-05T07:18:56.829Z,999.18
2019-05-05T07:19:56.751Z,999.23
2019-05-05T07:20:56.737Z,999.24
2019-05-05T07:21:56.756Z,999.21
2019-05-05T07:23:02.018Z,999.17
2019-05-05T07:23:57.798Z,999.13
2019-05-05T07:24:56.698Z,999.12
2019-05-05T07:25:56.680Z,999.13
2019-05-05T07:26:56.671Z,999.19
2019-05-05T07:27:56.660Z,999.14
2019-05-05T07:28:56.647Z,999.14
2019-05-05T07:29:56.702Z,999.07
2019-05-05T07:30:56.675Z,999.17
2019-05-05T07:31:56.614Z,999.11
2019-05-05T07:32:56.604Z,999.15
2019-05-05T07:33:56.592Z,999.17
2019-05-05T07:34:56.581Z,999.14
2019-05-05T07:36:02.966Z,999.20
2019-05-05T07:36:57.559Z,999.20
2019-05-05T07:37:56.559Z,999.27
2019-05-05T07:38:56.535Z,999.26
2019-05-05T07:39:56.530Z,999.23
2019-05-05T07:40:56.513Z,999.22
2019-05-05T07:41:56.580Z,999.22
2019-05-05T07:42:56.493Z,999.19
2019-05-05T07:43:56.479Z,999.27
2019-05-05T07:44:56.468Z,999.20
2019-05-05T07:45:56.473Z,999.25
2019-05-05T07:46:56.451Z,999.16
2019-05-05T07:47:56.525Z,999.24
2019-05-05T07:48:56.429Z,999.34
2019-05-05T07:49:56.510Z,999.32
2019-05-05T07:51:01.905Z,999.34
2019-05-05T07:51:57.465Z,999.26
2019-05-05T07:53:10.398Z,999.25
2019-05-05T07:53:57.470Z,999.28
2019-05-05T07:54:56.446Z,999.29
2019-05-05T07:55:56.390Z,999.38
2019-05-05T07:56:56.339Z,999.37
2019-05-05T07:57:56.445Z,999.37
2019-05-05T07:58:56.368Z,999.42
2019-05-05T07:59:56.399Z,999.36
2019-05-05T08:00:56.317Z,999.40
2019-05-05T08:01:56.330Z,999.44
2019-05-05T08:02:56.282Z,999.37
2019-05-05T08:03:56.263Z,999.38
2019-05-05T08:04:56.261Z,999.34
2019-05-05T08:05:56.459Z,999.44
2019-05-05T08:06:56.293Z,999.43
2019-05-05T08:07:56.227Z,999.42
2019-05-05T08:08:56.221Z,999.42
2019-05-05T08:09:56.193Z,999.40
2019-05-05T08:10:56.202Z,999.35
2019-05-05T08:11:56.398Z,999.41
2019-05-05T08:12:56.160Z,999.35
2019-05-05T08:13:56.151Z,999.41
2019-05-05T08:14:56.144Z,999.45
2019-05-05T08:15:59.747Z,999.47
2019-05-05T08:16:56.108Z,999.34
2019-05-05T08:17:56.164Z,999.43
2019-05-05T08:18:56.088Z,999.45
2019-05-05T08:19:56.073Z,999.38
2019-05-05T08:20:56.064Z,999.34
2019-05-05T08:21:56.051Z,999.34
2019-05-05T08:22:56.039Z,999.40
2019-05-05T08:23:56.101Z,999.40
2019-05-05T08:24:56.021Z,999.37
2019-05-05T08:25:56.007Z,999.44
2019-05-05T08:26:56.034Z,999.38
2019-05-05T08:27:55.984Z,999.44
2019-05-05T08:28:55.971Z,999.42
2019-05-05T08:29:56.026Z,999.43
2019-05-05T08:30:55.954Z,999.43
2019-05-05T08:31:55.939Z,999.42
2019-05-05T08:32:55.926Z,999.39
2019-05-05T08:33:55.918Z,999.44
2019-05-05T08:35:00.526Z,999.43
2019-05-05T08:35:56.960Z,999.48
2019-05-05T08:36:55.908Z,999.46
2019-05-05T08:37:55.871Z,999.46
2019-05-05T08:38:55.859Z,999.40
2019-05-05T08:39:55.865Z,999.50
2019-05-05T08:40:55.835Z,999.52
2019-05-05T08:41:56.036Z,999.55
2019-05-05T08:42:55.814Z,999.53
2019-05-05T08:43:55.804Z,999.54
2019-05-05T08:44:55.796Z,999.62
2019-05-05T08:45:55.782Z,999.66
2019-05-05T08:46:55.771Z,999.60
2019-05-05T08:47:55.824Z,999.64
2019-05-05T08:48:55.750Z,999.72
2019-05-05T08:49:55.737Z,999.70
2019-05-05T08:50:55.732Z,999.70
2019-05-05T08:51:55.712Z,999.66
2019-05-05T08:52:55.705Z,999.68
2019-05-05T08:53:55.760Z,999.73
2019-05-05T08:54:55.680Z,999.65
2019-05-05T08:55:55.674Z,999.76
2019-05-05T08:56:55.660Z,999.74
2019-05-05T08:57:55.646Z,999.75
2019-05-05T08:58:55.636Z,999.74
2019-05-05T08:59:55.840Z,999.72
2019-05-05T09:00:55.613Z,999.74
2019-05-05T09:01:55.603Z,999.75
2019-05-05T09:02:55.592Z,999.64
2019-05-05T09:03:55.581Z,999.74
2019-05-05T09:04:55.568Z,999.75
2019-05-05T09:05:55.622Z,999.74
2019-05-05T09:06:55.545Z,999.73
2019-05-05T09:07:55.539Z,999.84
2019-05-05T09:08:55.525Z,999.82
2019-05-05T09:09:55.513Z,999.71
2019-05-05T09:10:55.502Z,999.78
2019-05-05T09:11:55.557Z,999.79
2019-05-05T09:12:55.481Z,999.81
2019-05-05T09:13:55.469Z,999.77
2019-05-05T09:14:55.460Z,999.86
2019-05-05T09:15:55.446Z,999.80
2019-05-05T09:16:55.469Z,999.79
2019-05-05T09:17:55.487Z,999.78
2019-05-05T09:18:55.411Z,999.64
2019-05-05T09:19:55.399Z,999.74
2019-05-05T09:20:55.391Z,999.68
2019-05-05T09:21:55.378Z,999.70
2019-05-05T09:22:57.301Z,999.73
2019-05-05T09:24:01.560Z,999.82
2019-05-05T09:24:56.344Z,999.81
2019-05-05T09:25:55.335Z,999.79
2019-05-05T09:26:55.323Z,999.82
2019-05-05T09:27:55.314Z,999.74
2019-05-05T09:28:55.302Z,999.70
2019-05-05T09:29:55.357Z,999.76
2019-05-05T09:30:55.279Z,999.76
2019-05-05T09:31:55.269Z,999.76
2019-05-05T09:32:55.263Z,999.90
2019-05-05T09:33:55.246Z,999.79
2019-05-05T09:34:55.237Z,999.67
2019-05-05T09:35:55.290Z,999.78
2019-05-05T09:36:55.213Z,999.85
2019-05-05T09:37:55.204Z,999.80
2019-05-05T09:38:55.192Z,999.72
2019-05-05T09:39:55.181Z,999.66
2019-05-05T09:40:55.188Z,999.67
2019-05-05T09:41:55.227Z,999.69
2019-05-05T09:42:55.147Z,999.68
2019-05-05T09:43:55.136Z,999.70
2019-05-05T09:44:55.125Z,999.62
2019-05-05T09:45:55.114Z,999.70
2019-05-05T09:46:55.105Z,999.65
2019-05-05T09:47:55.158Z,999.76
2019-05-05T09:48:55.082Z,999.67
2019-05-05T09:49:55.081Z,999.69
2019-05-05T09:50:55.062Z,999.73
2019-05-05T09:51:55.050Z,999.94
2019-05-05T09:52:55.038Z,999.89
2019-05-05T09:53:55.092Z,999.94
2019-05-05T09:54:55.013Z,999.99
2019-05-05T09:55:55.005Z,999.99
2019-05-05T09:56:54.994Z,999.95
2019-05-05T09:57:54.981Z,999.99
2019-05-05T09:58:54.969Z,999.92
2019-05-05T09:59:55.026Z,999.93
2019-05-05T10:00:54.957Z,999.99
2019-05-05T10:01:54.936Z,999.93
2019-05-05T10:02:54.935Z,999.95
2019-05-05T10:03:54.914Z,1000.02
2019-05-05T10:04:54.904Z,1000.01
2019-05-05T10:05:54.964Z,999.80
2019-05-05T10:06:54.883Z,999.79
2019-05-05T10:07:54.872Z,999.78
2019-05-05T10:08:54.863Z,999.81
2019-05-05T10:09:54.849Z,999.83
2019-05-05T10:10:54.874Z,1000.14
2019-05-05T10:11:54.894Z,999.90
2019-05-05T10:12:54.999Z,999.86
2019-05-05T10:13:54.805Z,999.91
2019-05-05T10:14:54.810Z,999.88
2019-05-05T10:15:55.016Z,999.87
2019-05-05T10:16:54.770Z,999.89
2019-05-05T10:17:54.970Z,999.87
2019-05-05T10:18:54.753Z,999.89
2019-05-05T10:19:54.776Z,999.86
2019-05-05T10:20:54.727Z,999.85
2019-05-05T10:21:54.714Z,999.89
2019-05-05T10:22:54.706Z,999.90
2019-05-05T10:23:54.758Z,999.91
2019-05-05T10:24:57.317Z,999.90
2019-05-05T10:25:54.670Z,999.95
2019-05-05T10:26:54.661Z,999.88
2019-05-05T10:27:54.656Z,999.93
2019-05-05T10:28:54.693Z,999.91
2019-05-05T10:29:54.892Z,999.93
2019-05-05T10:30:54.628Z,999.89
2019-05-05T10:31:54.609Z,999.94
2019-05-05T10:32:54.716Z,1000.01
2019-05-05T10:33:54.583Z,999.96
2019-05-05T10:34:54.569Z,999.95
2019-05-05T10:35:54.626Z,1000.02
2019-05-05T10:36:54.546Z,999.85
2019-05-05T10:37:54.643Z,999.89
2019-05-05T10:38:54.525Z,999.90
2019-05-05T10:39:54.513Z,999.84
2019-05-05T10:40:54.502Z,999.91
2019-05-05T10:41:56.205Z,999.97
2019-05-05T10:42:54.479Z,1000.04
2019-05-05T10:43:54.482Z,999.94
2019-05-05T10:44:54.457Z,1000.02
2019-05-05T10:45:54.737Z,1000.16
2019-05-05T10:46:54.439Z,999.93
2019-05-05T10:47:54.500Z,999.93
2019-05-05T10:48:54.411Z,999.94
2019-05-05T10:49:54.547Z,999.95
2019-05-05T10:50:54.390Z,999.96
2019-05-05T10:51:54.477Z,999.91
2019-05-05T10:52:54.364Z,999.96
2019-05-05T10:53:54.638Z,999.98
2019-05-05T10:54:54.903Z,999.93
2019-05-05T10:55:54.331Z,999.90
2019-05-05T10:56:54.321Z,1000.00
2019-05-05T10:57:54.533Z,1000.31
2019-05-05T10:58:54.637Z,1000.02
2019-05-05T10:59:54.354Z,999.89
2019-05-05T11:00:54.553Z,999.89
2019-05-05T11:01:54.263Z,999.84
2019-05-05T11:02:54.252Z,999.99
2019-05-05T11:03:54.241Z,999.88
2019-05-05T11:04:54.663Z,999.89
2019-05-05T11:05:54.284Z,999.90
2019-05-05T11:06:54.664Z,999.93
2019-05-05T11:07:54.195Z,999.86
2019-05-05T11:08:54.183Z,999.97
2019-05-05T11:09:54.171Z,999.91
2019-05-05T11:10:54.162Z,1000.00
2019-05-05T11:11:54.216Z,1000.27
2019-05-05T11:12:54.137Z,1000.29
2019-05-05T11:13:54.351Z,1000.06
2019-05-05T11:14:54.546Z,999.88
2019-05-05T11:15:54.703Z,999.89
2019-05-05T11:16:54.643Z,999.88
2019-05-05T11:17:54.330Z,999.83
2019-05-05T11:18:54.188Z,999.92
2019-05-05T11:19:54.057Z,999.93
2019-05-05T11:20:54.802Z,999.95
2019-05-05T11:21:54.118Z,1000.00
2019-05-05T11:22:54.226Z,999.92
2019-05-05T11:23:54.226Z,999.89
2019-05-05T11:25:00.574Z,999.84
2019-05-05T11:25:54.990Z,999.85
2019-05-05T11:26:54.137Z,999.85
2019-05-05T11:27:54.220Z,999.85
2019-05-05T11:28:54.007Z,999.83
2019-05-05T11:29:54.206Z,999.87
2019-05-05T11:30:53.936Z,999.92
2019-05-05T11:31:53.925Z,999.91
2019-05-05T11:32:53.913Z,999.85
2019-05-05T11:33:54.287Z,1000.01
2019-05-05T11:34:53.891Z,999.87
2019-05-05T11:35:54.096Z,999.84
2019-05-05T11:36:54.425Z,999.76
2019-05-05T11:37:54.309Z,999.71
2019-05-05T11:38:53.875Z,999.72
2019-05-05T11:39:53.835Z,999.84
2019-05-05T11:40:54.625Z,1000.04
2019-05-05T11:41:54.777Z,999.79
2019-05-05T11:42:54.123Z,1000.09
2019-05-05T11:43:53.791Z,999.76
2019-05-05T11:44:53.780Z,1000.11
2019-05-05T11:45:54.379Z,1000.11
2019-05-05T11:46:54.684Z,1000.04
2019-05-05T11:47:53.958Z,1000.06
2019-05-05T11:48:54.384Z,1000.01
2019-05-05T11:49:56.622Z,999.77
2019-05-05T11:50:54.128Z,999.80
2019-05-05T11:51:54.340Z,1000.09
2019-05-05T11:52:54.465Z,1000.12
2019-05-05T11:53:54.101Z,999.83
2019-05-05T11:54:54.359Z,1000.19
2019-05-05T11:55:54.990Z,1000.01
2019-05-05T11:56:54.063Z,1000.18
2019-05-05T11:57:54.468Z,999.86
2019-05-05T11:58:54.629Z,999.81
2019-05-05T11:59:54.064Z,999.80
2019-05-05T12:00:54.438Z,999.75
2019-05-05T12:01:54.977Z,1000.19
2019-05-05T12:02:54.383Z,999.85
2019-05-05T12:04:59.757Z,999.72
2019-05-05T12:05:59.535Z,999.76
2019-05-05T12:06:59.529Z,999.73
2019-05-05T12:07:59.512Z,999.75
2019-05-05T12:08:59.502Z,999.76
2019-05-05T12:09:59.492Z,999.74
2019-05-05T12:10:59.548Z,999.68
2019-05-05T12:11:59.467Z,999.68
2019-05-05T12:12:59.456Z,999.65
2019-05-05T12:13:59.459Z,999.76
2019-05-05T12:14:59.433Z,999.76
2019-05-05T12:15:59.423Z,999.78
2019-05-05T12:16:59.479Z,999.81
2019-05-05T12:17:59.403Z,999.78
2019-05-05T12:18:59.387Z,999.81
2019-05-05T12:19:59.376Z,1000.18
2019-05-05T12:20:59.365Z,1000.17
2019-05-05T12:21:59.354Z,1000.17
2019-05-05T12:22:59.554Z,1000.11
2019-05-05T12:23:59.331Z,1000.12
2019-05-05T12:24:59.433Z,1000.12
2019-05-05T12:25:59.308Z,1000.25
2019-05-05T12:26:59.302Z,1000.05
2019-05-05T12:27:59.287Z,1000.17